Terminal Aerodrome Forecast
Issued by NWS

Home | Current Version | Previous Version | Text Only | Print | Product List | Glossary On
Versions: 1 2 3 4 5 6 7 8 9 10 11 12 13 14 15 16 17
831
FTUS43 KDLH 181720
TAFBRD
TAF
KBRD 181720Z 1818/1918 32013G21KT P6SM SCT025
     FM181830 32013G21KT P6SM BKN025
     FM182200 32014G23KT P6SM SCT030
     FM190400 31011KT P6SM FEW250
     FM191200 25006KT P6SM SCT150
     FM191500 22007KT P6SM SCT090=

USA.gov is the U.S. government's official web portal to all federal, state and local government web resources and services.